sensor_id;sensor_type;location;lat;lon;timestamp;P1;durP1;ratioP1;P2;durP2;ratioP2
77944;SDS011;67142;47.404;-1.384;2023-04-03T00:00:52;14.38;;;12.63;;
77944;SDS011;67142;47.404;-1.384;2023-04-03T00:03:19;14.95;;;12.95;;
77944;SDS011;67142;47.404;-1.384;2023-04-03T00:05:45;19.40;;;13.90;;
77944;SDS011;67142;47.404;-1.384;2023-04-03T00:08:12;14.77;;;13.30;;
77944;SDS011;67142;47.404;-1.384;2023-04-03T00:10:38;14.10;;;12.77;;
77944;SDS011;67142;47.404;-1.384;2023-04-03T00:13:04;14.30;;;13.00;;
77944;SDS011;67142;47.404;-1.384;2023-04-03T00:15:31;21.83;;;13.95;;
77944;SDS011;67142;47.404;-1.384;2023-04-03T00:17:57;14.98;;;13.73;;
77944;SDS011;67142;47.404;-1.384;2023-04-03T00:20:23;14.75;;;13.20;;
77944;SDS011;67142;47.404;-1.384;2023-04-03T00:22:49;17.02;;;13.77;;
77944;SDS011;67142;47.404;-1.384;2023-04-03T00:25:16;16.35;;;13.30;;
77944;SDS011;67142;47.404;-1.384;2023-04-03T00:27:42;14.13;;;12.82;;
77944;SDS011;67142;47.404;-1.384;2023-04-03T00:30:09;14.47;;;12.97;;
77944;SDS011;67142;47.404;-1.384;2023-04-03T00:32:36;15.43;;;13.02;;
77944;SDS011;67142;47.404;-1.384;2023-04-03T00:35:02;15.85;;;12.85;;
77944;SDS011;67142;47.404;-1.384;2023-04-03T00:37:28;15.73;;;13.35;;
77944;SDS011;67142;47.404;-1.384;2023-04-03T00:39:55;17.77;;;13.38;;
77944;SDS011;67142;47.404;-1.384;2023-04-03T00:42:21;14.55;;;13.20;;
77944;SDS011;67142;47.404;-1.384;2023-04-03T00:47:15;15.73;;;13.35;;
77944;SDS011;67142;47.404;-1.384;2023-04-03T00:49:41;14.30;;;12.90;;
77944;SDS011;67142;47.404;-1.384;2023-04-03T00:52:09;14.48;;;13.00;;
77944;SDS011;67142;47.404;-1.384;2023-04-03T00:54:37;16.42;;;13.15;;
77944;SDS011;67142;47.404;-1.384;2023-04-03T00:57:03;18.40;;;13.88;;
77944;SDS011;67142;47.404;-1.384;2023-04-03T00:59:32;16.55;;;13.10;;
77944;SDS011;67142;47.404;-1.384;2023-04-03T01:01:59;14.32;;;12.88;;
77944;SDS011;67142;47.404;-1.384;2023-04-03T01:06:58;14.77;;;12.70;;
77944;SDS011;67142;47.404;-1.384;2023-04-03T01:09:25;14.57;;;12.90;;
77944;SDS011;67142;47.404;-1.384;2023-04-03T01:11:51;15.30;;;13.00;;
77944;SDS011;67142;47.404;-1.384;2023-04-03T01:14:17;14.18;;;12.57;;
77944;SDS011;67142;47.404;-1.384;2023-04-03T01:16:51;15.10;;;12.70;;
77944;SDS011;67142;47.404;-1.384;2023-04-03T01:19:17;17.83;;;12.75;;
77944;SDS011;67142;47.404;-1.384;2023-04-03T01:21:57;18.98;;;12.60;;
77944;SDS011;67142;47.404;-1.384;2023-04-03T01:26:54;14.32;;;12.45;;
77944;SDS011;67142;47.404;-1.384;2023-04-03T01:29:21;16.55;;;13.07;;
77944;SDS011;67142;47.404;-1.384;2023-04-03T01:34:13;14.35;;;12.85;;
77944;SDS011;67142;47.404;-1.384;2023-04-03T01:36:39;16.23;;;12.35;;
77944;SDS011;67142;47.404;-1.384;2023-04-03T01:39:06;15.48;;;12.43;;
77944;SDS011;67142;47.404;-1.384;2023-04-03T01:41:32;16.63;;;12.68;;
77944;SDS011;67142;47.404;-1.384;2023-04-03T01:43:58;16.15;;;12.73;;
77944;SDS011;67142;47.404;-1.384;2023-04-03T01:46:24;18.35;;;13.13;;
77944;SDS011;67142;47.404;-1.384;2023-04-03T01:48:50;15.52;;;13.30;;
77944;SDS011;67142;47.404;-1.384;2023-04-03T01:51:16;20.70;;;13.20;;
77944;SDS011;67142;47.404;-1.384;2023-04-03T01:53:43;21.35;;;13.45;;
77944;SDS011;67142;47.404;-1.384;2023-04-03T01:56:09;16.30;;;12.85;;
77944;SDS011;67142;47.404;-1.384;2023-04-03T01:58:35;15.98;;;13.32;;
77944;SDS011;67142;47.404;-1.384;2023-04-03T02:01:01;16.95;;;12.93;;
77944;SDS011;67142;47.404;-1.384;2023-04-03T02:03:27;13.55;;;12.13;;
77944;SDS011;67142;47.404;-1.384;2023-04-03T02:05:53;16.98;;;12.95;;
77944;SDS011;67142;47.404;-1.384;2023-04-03T02:08:20;18.38;;;12.73;;
77944;SDS011;67142;47.404;-1.384;2023-04-03T02:10:47;18.20;;;13.05;;
77944;SDS011;67142;47.404;-1.384;2023-04-03T02:13:13;13.27;;;11.98;;
77944;SDS011;67142;47.404;-1.384;2023-04-03T02:15:39;18.15;;;12.52;;
77944;SDS011;67142;47.404;-1.384;2023-04-03T02:18:05;14.05;;;12.60;;
77944;SDS011;67142;47.404;-1.384;2023-04-03T02:20:31;16.00;;;12.50;;
77944;SDS011;67142;47.404;-1.384;2023-04-03T02:22:58;13.90;;;12.43;;
77944;SDS011;67142;47.404;-1.384;2023-04-03T02:25:24;17.70;;;12.32;;
77944;SDS011;67142;47.404;-1.384;2023-04-03T02:27:50;14.05;;;12.60;;
77944;SDS011;67142;47.404;-1.384;2023-04-03T02:30:16;15.98;;;12.57;;
77944;SDS011;67142;47.404;-1.384;2023-04-03T02:32:42;15.35;;;12.27;;
77944;SDS011;67142;47.404;-1.384;2023-04-03T02:35:09;18.50;;;13.25;;
77944;SDS011;67142;47.404;-1.384;2023-04-03T02:37:35;14.45;;;12.18;;
77944;SDS011;67142;47.404;-1.384;2023-04-03T02:40:02;15.80;;;13.07;;
77944;SDS011;67142;47.404;-1.384;2023-04-03T02:42:28;15.82;;;12.10;;
77944;SDS011;67142;47.404;-1.384;2023-04-03T02:44:54;16.58;;;12.82;;
77944;SDS011;67142;47.404;-1.384;2023-04-03T02:47:20;19.65;;;13.07;;
77944;SDS011;67142;47.404;-1.384;2023-04-03T02:49:46;18.20;;;12.90;;
77944;SDS011;67142;47.404;-1.384;2023-04-03T02:52:13;15.38;;;12.30;;
77944;SDS011;67142;47.404;-1.384;2023-04-03T02:54:39;16.60;;;12.50;;
77944;SDS011;67142;47.404;-1.384;2023-04-03T02:57:06;16.52;;;12.38;;
77944;SDS011;67142;47.404;-1.384;2023-04-03T02:59:35;18.30;;;12.68;;
77944;SDS011;67142;47.404;-1.384;2023-04-03T03:02:01;19.65;;;13.18;;
77944;SDS011;67142;47.404;-1.384;2023-04-03T03:04:28;15.93;;;12.38;;
77944;SDS011;67142;47.404;-1.384;2023-04-03T03:06:54;17.80;;;12.25;;
77944;SDS011;67142;47.404;-1.384;2023-04-03T03:09:20;20.05;;;13.00;;
77944;SDS011;67142;47.404;-1.384;2023-04-03T03:11:46;15.25;;;12.32;;
77944;SDS011;67142;47.404;-1.384;2023-04-03T03:14:12;18.23;;;12.30;;
77944;SDS011;67142;47.404;-1.384;2023-04-03T03:16:38;19.60;;;12.55;;
77944;SDS011;67142;47.404;-1.384;2023-04-03T03:19:04;14.93;;;12.25;;
77944;SDS011;67142;47.404;-1.384;2023-04-03T03:21:31;13.50;;;12.13;;
77944;SDS011;67142;47.404;-1.384;2023-04-03T03:23:57;19.30;;;12.93;;
77944;SDS011;67142;47.404;-1.384;2023-04-03T03:26:23;17.45;;;12.38;;
77944;SDS011;67142;47.404;-1.384;2023-04-03T03:28:50;14.55;;;12.15;;
77944;SDS011;67142;47.404;-1.384;2023-04-03T03:31:16;18.98;;;12.48;;
77944;SDS011;67142;47.404;-1.384;2023-04-03T03:33:42;17.08;;;12.07;;
77944;SDS011;67142;47.404;-1.384;2023-04-03T03:36:08;14.70;;;12.23;;
77944;SDS011;67142;47.404;-1.384;2023-04-03T03:38:34;18.25;;;12.57;;
77944;SDS011;67142;47.404;-1.384;2023-04-03T03:41:00;14.02;;;12.18;;
77944;SDS011;67142;47.404;-1.384;2023-04-03T03:43:26;15.43;;;12.15;;
77944;SDS011;67142;47.404;-1.384;2023-04-03T03:45:53;18.75;;;12.20;;
77944;SDS011;67142;47.404;-1.384;2023-04-03T03:48:20;20.30;;;12.57;;
77944;SDS011;67142;47.404;-1.384;2023-04-03T03:50:46;15.55;;;11.68;;
77944;SDS011;67142;47.404;-1.384;2023-04-03T03:53:12;14.00;;;11.52;;
77944;SDS011;67142;47.404;-1.384;2023-04-03T03:55:38;14.13;;;11.90;;
77944;SDS011;67142;47.404;-1.384;2023-04-03T03:58:04;16.57;;;12.00;;
77944;SDS011;67142;47.404;-1.384;2023-04-03T04:00:30;21.63;;;12.18;;
77944;SDS011;67142;47.404;-1.384;2023-04-03T04:02:56;13.73;;;11.98;;
77944;SDS011;67142;47.404;-1.384;2023-04-03T04:05:22;18.35;;;11.93;;
77944;SDS011;67142;47.404;-1.384;2023-04-03T04:07:48;16.73;;;12.35;;
77944;SDS011;67142;47.404;-1.384;2023-04-03T04:10:14;17.73;;;12.48;;
77944;SDS011;67142;47.404;-1.384;2023-04-03T04:12:40;21.55;;;12.23;;
77944;SDS011;67142;47.404;-1.384;2023-04-03T04:15:07;18.05;;;12.20;;
77944;SDS011;67142;47.404;-1.384;2023-04-03T04:17:33;18.27;;;12.90;;
77944;SDS011;67142;47.404;-1.384;2023-04-03T04:20:00;17.70;;;12.43;;
77944;SDS011;67142;47.404;-1.384;2023-04-03T04:22:26;13.13;;;11.80;;
77944;SDS011;67142;47.404;-1.384;2023-04-03T04:24:52;15.55;;;12.68;;
77944;SDS011;67142;47.404;-1.384;2023-04-03T04:27:18;15.23;;;12.20;;
77944;SDS011;67142;47.404;-1.384;2023-04-03T04:29:44;14.88;;;11.80;;
77944;SDS011;67142;47.404;-1.384;2023-04-03T04:32:10;13.32;;;11.98;;
77944;SDS011;67142;47.404;-1.384;2023-04-03T04:34:36;13.70;;;12.20;;
77944;SDS011;67142;47.404;-1.384;2023-04-03T04:37:02;16.20;;;12.45;;
77944;SDS011;67142;47.404;-1.384;2023-04-03T04:39:28;13.90;;;12.32;;
77944;SDS011;67142;47.404;-1.384;2023-04-03T04:41:54;15.70;;;12.32;;
77944;SDS011;67142;47.404;-1.384;2023-04-03T04:44:20;14.57;;;13.00;;
77944;SDS011;67142;47.404;-1.384;2023-04-03T04:46:46;17.95;;;12.75;;
77944;SDS011;67142;47.404;-1.384;2023-04-03T04:49:12;13.93;;;12.32;;
77944;SDS011;67142;47.404;-1.384;2023-04-03T04:51:38;15.38;;;12.80;;
77944;SDS011;67142;47.404;-1.384;2023-04-03T04:54:04;18.73;;;13.00;;
77944;SDS011;67142;47.404;-1.384;2023-04-03T04:56:30;16.17;;;13.07;;
77944;SDS011;67142;47.404;-1.384;2023-04-03T04:58:56;16.10;;;12.87;;
77944;SDS011;67142;47.404;-1.384;2023-04-03T05:01:22;15.65;;;12.27;;
77944;SDS011;67142;47.404;-1.384;2023-04-03T05:03:49;19.80;;;13.27;;
77944;SDS011;67142;47.404;-1.384;2023-04-03T05:06:15;16.55;;;13.00;;
77944;SDS011;67142;47.404;-1.384;2023-04-03T05:08:41;15.82;;;12.77;;
77944;SDS011;67142;47.404;-1.384;2023-04-03T05:11:07;15.02;;;12.65;;
77944;SDS011;67142;47.404;-1.384;2023-04-03T05:13:33;19.15;;;12.73;;
77944;SDS011;67142;47.404;-1.384;2023-04-03T05:15:59;13.40;;;12.10;;
77944;SDS011;67142;47.404;-1.384;2023-04-03T05:18:25;17.48;;;12.38;;
77944;SDS011;67142;47.404;-1.384;2023-04-03T05:20:51;14.13;;;12.50;;
77944;SDS011;67142;47.404;-1.384;2023-04-03T05:23:17;16.65;;;12.88;;
77944;SDS011;67142;47.404;-1.384;2023-04-03T05:25:44;16.50;;;12.88;;
77944;SDS011;67142;47.404;-1.384;2023-04-03T05:28:11;16.40;;;12.55;;
77944;SDS011;67142;47.404;-1.384;2023-04-03T05:30:37;13.60;;;12.15;;
77944;SDS011;67142;47.404;-1.384;2023-04-03T05:33:03;16.25;;;13.38;;
77944;SDS011;67142;47.404;-1.384;2023-04-03T05:35:30;15.95;;;13.07;;
77944;SDS011;67142;47.404;-1.384;2023-04-03T05:37:57;19.27;;;13.63;;
77944;SDS011;67142;47.404;-1.384;2023-04-03T05:40:23;14.70;;;12.27;;
77944;SDS011;67142;47.404;-1.384;2023-04-03T05:42:49;14.63;;;12.73;;
77944;SDS011;67142;47.404;-1.384;2023-04-03T05:45:15;14.77;;;12.93;;
77944;SDS011;67142;47.404;-1.384;2023-04-03T05:47:41;14.73;;;12.38;;
77944;SDS011;67142;47.404;-1.384;2023-04-03T05:50:07;17.08;;;13.27;;
77944;SDS011;67142;47.404;-1.384;2023-04-03T05:52:35;20.20;;;13.68;;
77944;SDS011;67142;47.404;-1.384;2023-04-03T05:55:02;17.92;;;13.50;;
77944;SDS011;67142;47.404;-1.384;2023-04-03T05:57:28;18.23;;;13.25;;
77944;SDS011;67142;47.404;-1.384;2023-04-03T05:59:54;15.27;;;13.77;;
77944;SDS011;67142;47.404;-1.384;2023-04-03T06:02:21;19.55;;;13.52;;
77944;SDS011;67142;47.404;-1.384;2023-04-03T06:04:47;14.27;;;12.75;;
77944;SDS011;67142;47.404;-1.384;2023-04-03T06:07:14;14.65;;;13.18;;
77944;SDS011;67142;47.404;-1.384;2023-04-03T06:09:41;14.15;;;12.48;;
77944;SDS011;67142;47.404;-1.384;2023-04-03T06:12:07;14.13;;;12.80;;
77944;SDS011;67142;47.404;-1.384;2023-04-03T06:14:33;15.68;;;13.82;;
77944;SDS011;67142;47.404;-1.384;2023-04-03T06:17:00;15.07;;;13.52;;
77944;SDS011;67142;47.404;-1.384;2023-04-03T06:19:26;16.17;;;13.52;;
77944;SDS011;67142;47.404;-1.384;2023-04-03T06:21:52;15.20;;;13.30;;
77944;SDS011;67142;47.404;-1.384;2023-04-03T06:24:19;21.98;;;14.60;;
77944;SDS011;67142;47.404;-1.384;2023-04-03T06:26:46;16.80;;;14.00;;
77944;SDS011;67142;47.404;-1.384;2023-04-03T06:29:13;15.15;;;13.65;;
77944;SDS011;67142;47.404;-1.384;2023-04-03T06:31:39;15.85;;;14.23;;
77944;SDS011;67142;47.404;-1.384;2023-04-03T06:34:05;16.63;;;14.25;;
77944;SDS011;67142;47.404;-1.384;2023-04-03T06:36:32;18.20;;;14.77;;
77944;SDS011;67142;47.404;-1.384;2023-04-03T06:38:58;15.77;;;14.27;;
77944;SDS011;67142;47.404;-1.384;2023-04-03T06:41:24;20.15;;;14.77;;
77944;SDS011;67142;47.404;-1.384;2023-04-03T06:43:51;17.33;;;14.15;;
77944;SDS011;67142;47.404;-1.384;2023-04-03T06:46:18;16.48;;;14.30;;
77944;SDS011;67142;47.404;-1.384;2023-04-03T06:48:44;16.00;;;14.30;;
77944;SDS011;67142;47.404;-1.384;2023-04-03T06:51:20;16.30;;;14.05;;
77944;SDS011;67142;47.404;-1.384;2023-04-03T06:53:47;17.83;;;13.95;;
77944;SDS011;67142;47.404;-1.384;2023-04-03T06:56:14;18.13;;;15.02;;
77944;SDS011;67142;47.404;-1.384;2023-04-03T06:58:40;16.20;;;14.60;;
77944;SDS011;67142;47.404;-1.384;2023-04-03T07:01:07;16.80;;;15.07;;
77944;SDS011;67142;47.404;-1.384;2023-04-03T07:03:35;17.05;;;14.75;;
77944;SDS011;67142;47.404;-1.384;2023-04-03T07:06:01;16.95;;;14.50;;
77944;SDS011;67142;47.404;-1.384;2023-04-03T07:08:27;16.42;;;14.40;;
77944;SDS011;67142;47.404;-1.384;2023-04-03T07:10:53;17.75;;;14.77;;
77944;SDS011;67142;47.404;-1.384;2023-04-03T07:13:19;16.98;;;14.88;;
77944;SDS011;67142;47.404;-1.384;2023-04-03T07:15:46;16.15;;;14.45;;
77944;SDS011;67142;47.404;-1.384;2023-04-03T07:18:12;18.38;;;15.07;;
77944;SDS011;67142;47.404;-1.384;2023-04-03T07:20:38;19.27;;;15.60;;
77944;SDS011;67142;47.404;-1.384;2023-04-03T07:23:05;16.88;;;15.07;;
77944;SDS011;67142;47.404;-1.384;2023-04-03T07:25:31;18.20;;;15.95;;
77944;SDS011;67142;47.404;-1.384;2023-04-03T07:27:58;17.15;;;15.45;;
77944;SDS011;67142;47.404;-1.384;2023-04-03T07:30:24;22.85;;;16.38;;
77944;SDS011;67142;47.404;-1.384;2023-04-03T07:32:51;16.77;;;14.95;;
77944;SDS011;67142;47.404;-1.384;2023-04-03T07:35:17;17.13;;;15.45;;
77944;SDS011;67142;47.404;-1.384;2023-04-03T07:37:43;18.13;;;15.55;;
77944;SDS011;67142;47.404;-1.384;2023-04-03T07:40:10;17.13;;;15.25;;
77944;SDS011;67142;47.404;-1.384;2023-04-03T07:42:36;18.60;;;16.65;;
77944;SDS011;67142;47.404;-1.384;2023-04-03T07:45:03;21.38;;;18.83;;
77944;SDS011;67142;47.404;-1.384;2023-04-03T07:47:29;22.02;;;19.45;;
77944;SDS011;67142;47.404;-1.384;2023-04-03T07:49:56;19.20;;;17.02;;
77944;SDS011;67142;47.404;-1.384;2023-04-03T07:52:22;21.38;;;16.58;;
77944;SDS011;67142;47.404;-1.384;2023-04-03T07:54:48;18.17;;;16.27;;
77944;SDS011;67142;47.404;-1.384;2023-04-03T07:57:14;17.40;;;15.60;;
77944;SDS011;67142;47.404;-1.384;2023-04-03T07:59:41;16.98;;;15.38;;
77944;SDS011;67142;47.404;-1.384;2023-04-03T08:02:11;17.45;;;15.65;;
77944;SDS011;67142;47.404;-1.384;2023-04-03T08:04:37;18.27;;;16.25;;
77944;SDS011;67142;47.404;-1.384;2023-04-03T08:07:03;17.67;;;15.90;;
77944;SDS011;67142;47.404;-1.384;2023-04-03T08:09:29;16.75;;;15.00;;
77944;SDS011;67142;47.404;-1.384;2023-04-03T08:11:56;17.40;;;15.70;;
77944;SDS011;67142;47.404;-1.384;2023-04-03T08:14:22;17.58;;;15.80;;
77944;SDS011;67142;47.404;-1.384;2023-04-03T08:16:49;17.25;;;15.65;;
77944;SDS011;67142;47.404;-1.384;2023-04-03T08:19:15;17.10;;;15.45;;
77944;SDS011;67142;47.404;-1.384;2023-04-03T08:21:43;16.60;;;14.75;;
77944;SDS011;67142;47.404;-1.384;2023-04-03T08:24:10;17.55;;;15.85;;
77944;SDS011;67142;47.404;-1.384;2023-04-03T08:26:36;16.70;;;14.95;;
77944;SDS011;67142;47.404;-1.384;2023-04-03T08:29:02;16.65;;;14.95;;
77944;SDS011;67142;47.404;-1.384;2023-04-03T08:31:29;17.63;;;15.93;;
77944;SDS011;67142;47.404;-1.384;2023-04-03T08:33:56;17.70;;;15.90;;
77944;SDS011;67142;47.404;-1.384;2023-04-03T08:36:24;17.67;;;15.93;;
77944;SDS011;67142;47.404;-1.384;2023-04-03T08:38:51;17.73;;;15.93;;
77944;SDS011;67142;47.404;-1.384;2023-04-03T08:41:31;18.33;;;16.48;;
77944;SDS011;67142;47.404;-1.384;2023-04-03T08:46:26;18.13;;;16.30;;
77944;SDS011;67142;47.404;-1.384;2023-04-03T08:48:58;17.42;;;15.82;;
77944;SDS011;67142;47.404;-1.384;2023-04-03T08:51:25;17.98;;;16.10;;
77944;SDS011;67142;47.404;-1.384;2023-04-03T08:56:21;16.80;;;15.20;;
77944;SDS011;67142;47.404;-1.384;2023-04-03T08:58:50;17.00;;;15.30;;
77944;SDS011;67142;47.404;-1.384;2023-04-03T09:03:44;16.75;;;15.15;;
77944;SDS011;67142;47.404;-1.384;2023-04-03T09:13:52;19.00;;;15.50;;
77944;SDS011;67142;47.404;-1.384;2023-04-03T09:18:55;16.65;;;14.98;;
77944;SDS011;67142;47.404;-1.384;2023-04-03T09:21:25;17.35;;;15.45;;
77944;SDS011;67142;47.404;-1.384;2023-04-03T09:23:53;16.75;;;15.13;;
77944;SDS011;67142;47.404;-1.384;2023-04-03T09:26:41;18.50;;;16.08;;
77944;SDS011;67142;47.404;-1.384;2023-04-03T09:29:08;16.23;;;14.63;;
77944;SDS011;67142;47.404;-1.384;2023-04-03T09:31:39;17.30;;;15.65;;
77944;SDS011;67142;47.404;-1.384;2023-04-03T09:34:08;17.50;;;15.70;;
77944;SDS011;67142;47.404;-1.384;2023-04-03T09:36:39;18.38;;;16.48;;
77944;SDS011;67142;47.404;-1.384;2023-04-03T09:39:08;18.15;;;16.35;;
77944;SDS011;67142;47.404;-1.384;2023-04-03T09:41:35;18.35;;;16.45;;
77944;SDS011;67142;47.404;-1.384;2023-04-03T09:44:01;17.52;;;15.73;;
77944;SDS011;67142;47.404;-1.384;2023-04-03T09:46:31;19.13;;;16.77;;
77944;SDS011;67142;47.404;-1.384;2023-04-03T09:49:03;17.88;;;16.00;;
77944;SDS011;67142;47.404;-1.384;2023-04-03T09:51:30;18.23;;;16.20;;
77944;SDS011;67142;47.404;-1.384;2023-04-03T09:53:56;17.02;;;15.32;;
77944;SDS011;67142;47.404;-1.384;2023-04-03T09:56:26;16.67;;;14.98;;
77944;SDS011;67142;47.404;-1.384;2023-04-03T10:01:34;16.92;;;15.07;;
77944;SDS011;67142;47.404;-1.384;2023-04-03T10:04:04;16.70;;;14.75;;
77944;SDS011;67142;47.404;-1.384;2023-04-03T10:06:31;17.80;;;15.93;;
77944;SDS011;67142;47.404;-1.384;2023-04-03T10:08:59;19.02;;;16.25;;
77944;SDS011;67142;47.404;-1.384;2023-04-03T10:11:26;19.90;;;15.82;;
77944;SDS011;67142;47.404;-1.384;2023-04-03T10:13:55;17.63;;;15.82;;
77944;SDS011;67142;47.404;-1.384;2023-04-03T10:16:25;17.00;;;15.13;;
77944;SDS011;67142;47.404;-1.384;2023-04-03T10:21:52;18.13;;;16.05;;
77944;SDS011;67142;47.404;-1.384;2023-04-03T10:29:48;17.40;;;15.40;;
77944;SDS011;67142;47.404;-1.384;2023-04-03T10:34:46;17.63;;;15.40;;
77944;SDS011;67142;47.404;-1.384;2023-04-03T10:37:24;17.80;;;15.93;;
77944;SDS011;67142;47.404;-1.384;2023-04-03T10:39:59;18.40;;;16.40;;
77944;SDS011;67142;47.404;-1.384;2023-04-03T10:47:38;18.05;;;16.13;;
77944;SDS011;67142;47.404;-1.384;2023-04-03T10:50:12;19.17;;;17.08;;
77944;SDS011;67142;47.404;-1.384;2023-04-03T10:52:56;19.02;;;16.48;;
77944;SDS011;67142;47.404;-1.384;2023-04-03T10:57:54;18.20;;;16.23;;
77944;SDS011;67142;47.404;-1.384;2023-04-03T11:00:25;19.50;;;16.52;;
77944;SDS011;67142;47.404;-1.384;2023-04-03T11:02:56;18.85;;;16.27;;
77944;SDS011;67142;47.404;-1.384;2023-04-03T11:05:30;18.52;;;16.52;;
77944;SDS011;67142;47.404;-1.384;2023-04-03T11:07:57;23.58;;;18.60;;
77944;SDS011;67142;47.404;-1.384;2023-04-03T11:10:35;19.20;;;17.00;;
77944;SDS011;67142;47.404;-1.384;2023-04-03T11:13:04;17.80;;;15.90;;
77944;SDS011;67142;47.404;-1.384;2023-04-03T11:15:32;17.08;;;15.05;;
77944;SDS011;67142;47.404;-1.384;2023-04-03T11:18:11;18.38;;;16.33;;
77944;SDS011;67142;47.404;-1.384;2023-04-03T11:20:39;20.35;;;16.10;;
77944;SDS011;67142;47.404;-1.384;2023-04-03T11:23:26;18.05;;;16.17;;
77944;SDS011;67142;47.404;-1.384;2023-04-03T11:25:53;17.98;;;16.08;;
77944;SDS011;67142;47.404;-1.384;2023-04-03T11:28:20;18.95;;;16.95;;
77944;SDS011;67142;47.404;-1.384;2023-04-03T11:33:21;18.45;;;16.50;;
77944;SDS011;67142;47.404;-1.384;2023-04-03T11:35:54;19.27;;;17.23;;
77944;SDS011;67142;47.404;-1.384;2023-04-03T11:38:28;19.17;;;17.17;;
77944;SDS011;67142;47.404;-1.384;2023-04-03T11:40:56;18.70;;;16.33;;
77944;SDS011;67142;47.404;-1.384;2023-04-03T11:43:29;19.15;;;17.15;;
77944;SDS011;67142;47.404;-1.384;2023-04-03T11:45:58;18.50;;;16.60;;
77944;SDS011;67142;47.404;-1.384;2023-04-03T11:51:01;18.88;;;16.98;;
77944;SDS011;67142;47.404;-1.384;2023-04-03T11:55:54;17.15;;;15.45;;
77944;SDS011;67142;47.404;-1.384;2023-04-03T11:58:22;18.15;;;16.45;;
77944;SDS011;67142;47.404;-1.384;2023-04-03T12:13:40;17.88;;;16.17;;
77944;SDS011;67142;47.404;-1.384;2023-04-03T12:16:07;17.58;;;15.85;;
77944;SDS011;67142;47.404;-1.384;2023-04-03T12:18:53;17.45;;;15.85;;
77944;SDS011;67142;47.404;-1.384;2023-04-03T12:23:57;16.67;;;15.07;;
77944;SDS011;67142;47.404;-1.384;2023-04-03T12:26:27;16.85;;;15.23;;
77944;SDS011;67142;47.404;-1.384;2023-04-03T12:28:57;17.08;;;15.48;;
77944;SDS011;67142;47.404;-1.384;2023-04-03T12:31:25;17.75;;;15.95;;
77944;SDS011;67142;47.404;-1.384;2023-04-03T12:37:03;17.52;;;15.82;;
77944;SDS011;67142;47.404;-1.384;2023-04-03T12:39:41;17.80;;;16.10;;
77944;SDS011;67142;47.404;-1.384;2023-04-03T12:44:52;17.02;;;15.43;;
77944;SDS011;67142;47.404;-1.384;2023-04-03T12:47:22;17.23;;;15.63;;
77944;SDS011;67142;47.404;-1.384;2023-04-03T12:49:49;16.65;;;15.15;;
77944;SDS011;67142;47.404;-1.384;2023-04-03T12:52:19;16.63;;;15.13;;
77944;SDS011;67142;47.404;-1.384;2023-04-03T12:54:48;17.77;;;16.07;;
77944;SDS011;67142;47.404;-1.384;2023-04-03T12:59:40;17.15;;;15.55;;
77944;SDS011;67142;47.404;-1.384;2023-04-03T13:02:20;15.73;;;14.23;;
77944;SDS011;67142;47.404;-1.384;2023-04-03T13:04:46;17.77;;;16.17;;
77944;SDS011;67142;47.404;-1.384;2023-04-03T13:07:20;16.27;;;14.77;;
77944;SDS011;67142;47.404;-1.384;2023-04-03T13:09:54;17.73;;;16.13;;
77944;SDS011;67142;47.404;-1.384;2023-04-03T13:12:20;16.13;;;14.70;;
77944;SDS011;67142;47.404;-1.384;2023-04-03T13:14:57;17.50;;;15.90;;
77944;SDS011;67142;47.404;-1.384;2023-04-03T13:17:24;17.08;;;15.40;;
77944;SDS011;67142;47.404;-1.384;2023-04-03T13:19:51;16.52;;;15.02;;
77944;SDS011;67142;47.404;-1.384;2023-04-03T13:22:21;16.73;;;15.20;;
77944;SDS011;67142;47.404;-1.384;2023-04-03T13:24:50;17.17;;;15.48;;
77944;SDS011;67142;47.404;-1.384;2023-04-03T13:27:17;16.73;;;15.20;;
77944;SDS011;67142;47.404;-1.384;2023-04-03T13:29:43;16.73;;;15.32;;
77944;SDS011;67142;47.404;-1.384;2023-04-03T13:32:14;17.50;;;16.00;;
77944;SDS011;67142;47.404;-1.384;2023-04-03T13:34:43;18.70;;;17.20;;
77944;SDS011;67142;47.404;-1.384;2023-04-03T13:37:24;20.65;;;18.95;;
77944;SDS011;67142;47.404;-1.384;2023-04-03T13:40:09;20.48;;;18.75;;
77944;SDS011;67142;47.404;-1.384;2023-04-03T13:42:37;18.45;;;16.95;;
77944;SDS011;67142;47.404;-1.384;2023-04-03T13:45:10;17.93;;;16.53;;
77944;SDS011;67142;47.404;-1.384;2023-04-03T13:47:39;18.83;;;17.23;;
77944;SDS011;67142;47.404;-1.384;2023-04-03T13:52:39;17.90;;;16.42;;
77944;SDS011;67142;47.404;-1.384;2023-04-03T13:55:26;18.73;;;17.23;;
77944;SDS011;67142;47.404;-1.384;2023-04-03T14:00:20;18.92;;;17.30;;
77944;SDS011;67142;47.404;-1.384;2023-04-03T14:02:46;17.30;;;15.90;;
77944;SDS011;67142;47.404;-1.384;2023-04-03T14:05:12;16.77;;;15.32;;
77944;SDS011;67142;47.404;-1.384;2023-04-03T14:07:39;16.75;;;15.40;;
77944;SDS011;67142;47.404;-1.384;2023-04-03T14:10:05;19.13;;;17.63;;
77944;SDS011;67142;47.404;-1.384;2023-04-03T14:12:33;17.52;;;16.13;;
77944;SDS011;67142;47.404;-1.384;2023-04-03T14:15:10;17.92;;;16.52;;
77944;SDS011;67142;47.404;-1.384;2023-04-03T14:17:38;18.00;;;16.60;;
77944;SDS011;67142;47.404;-1.384;2023-04-03T14:20:04;19.45;;;18.05;;
77944;SDS011;67142;47.404;-1.384;2023-04-03T14:22:32;19.70;;;18.30;;
77944;SDS011;67142;47.404;-1.384;2023-04-03T14:24:59;19.42;;;17.98;;
77944;SDS011;67142;47.404;-1.384;2023-04-03T14:27:30;19.55;;;18.05;;
77944;SDS011;67142;47.404;-1.384;2023-04-03T14:29:59;17.63;;;16.23;;
77944;SDS011;67142;47.404;-1.384;2023-04-03T14:32:25;17.67;;;16.27;;
77944;SDS011;67142;47.404;-1.384;2023-04-03T14:34:52;17.03;;;15.73;;
77944;SDS011;67142;47.404;-1.384;2023-04-03T14:37:22;19.15;;;17.67;;
77944;SDS011;67142;47.404;-1.384;2023-04-03T14:39:50;17.20;;;15.90;;
77944;SDS011;67142;47.404;-1.384;2023-04-03T14:42:17;17.15;;;15.80;;
77944;SDS011;67142;47.404;-1.384;2023-04-03T14:44:43;16.33;;;15.02;;
77944;SDS011;67142;47.404;-1.384;2023-04-03T14:47:13;16.80;;;15.40;;
77944;SDS011;67142;47.404;-1.384;2023-04-03T14:49:40;17.00;;;15.70;;
77944;SDS011;67142;47.404;-1.384;2023-04-03T14:52:06;16.23;;;14.90;;
77944;SDS011;67142;47.404;-1.384;2023-04-03T14:54:42;16.90;;;15.60;;
77944;SDS011;67142;47.404;-1.384;2023-04-03T14:57:08;15.85;;;14.63;;
77944;SDS011;67142;47.404;-1.384;2023-04-03T14:59:34;15.60;;;14.37;;
77944;SDS011;67142;47.404;-1.384;2023-04-03T15:02:00;17.10;;;15.70;;
77944;SDS011;67142;47.404;-1.384;2023-04-03T15:04:27;18.55;;;17.15;;
77944;SDS011;67142;47.404;-1.384;2023-04-03T15:06:53;18.70;;;17.27;;
77944;SDS011;67142;47.404;-1.384;2023-04-03T15:11:45;16.27;;;14.97;;
77944;SDS011;67142;47.404;-1.384;2023-04-03T15:14:11;19.65;;;18.25;;
77944;SDS011;67142;47.404;-1.384;2023-04-03T15:16:37;18.38;;;16.98;;
77944;SDS011;67142;47.404;-1.384;2023-04-03T15:19:03;18.98;;;17.48;;
77944;SDS011;67142;47.404;-1.384;2023-04-03T15:21:30;16.98;;;15.68;;
77944;SDS011;67142;47.404;-1.384;2023-04-03T15:23:56;17.47;;;16.07;;
77944;SDS011;67142;47.404;-1.384;2023-04-03T15:26:22;16.50;;;15.20;;
77944;SDS011;67142;47.404;-1.384;2023-04-03T15:28:48;17.25;;;15.90;;
77944;SDS011;67142;47.404;-1.384;2023-04-03T15:31:15;16.98;;;15.57;;
77944;SDS011;67142;47.404;-1.384;2023-04-03T15:33:41;16.75;;;15.45;;
77944;SDS011;67142;47.404;-1.384;2023-04-03T15:36:07;17.10;;;15.60;;
77944;SDS011;67142;47.404;-1.384;2023-04-03T15:38:33;16.67;;;15.27;;